MAPA DE AEROPUERTO

INFORMACIÓN METAR y TAF

METAR FOR EDDP
ADDS - METARS form results

(2047 UTC 01 June 2020)
Data provider http://aviationweather.gov/metar/data/
 
METAR text: EDDP 012020Z 04006KT CAVOK 17/06 Q1021 NOSIG
Conditions at: EDDP (LEIPZIG/SCHKEUDI, DE) observed 2020 UTC 01 June 2020
Temperature: 17.0°C (63°F)
Dewpoint: 6.0°C (43°F) [RH = 48%]
Pressure (altimeter): 30.15 inches Hg (1021.0 mb)
Winds: from the NE (40 degrees) at 7 MPH (6 knots; 3.1 m/s)
Visibility: 6 or more miles (10+ km)
Ceiling: ceiling and visibility are OK
Clouds: unknown
Weather: no significant weather observed at this time

METAR text: EDDP 011950Z 04006KT CAVOK 17/06 Q1021 NOSIG
Conditions at: EDDP (LEIPZIG/SCHKEUDI, DE) observed 1950 UTC 01 June 2020
Temperature: 17.0°C (63°F)
Dewpoint: 6.0°C (43°F) [RH = 48%]
Pressure (altimeter): 30.15 inches Hg (1021.0 mb)
Winds: from the NE (40 degrees) at 7 MPH (6 knots; 3.1 m/s)
Visibility: 6 or more miles (10+ km)
Ceiling: ceiling and visibility are OK
Clouds: unknown
Weather: no significant weather observed at this time

Forecast for: EDDP (LEIPZIG/SCHKEUDI, DE)
Text: TAF EDDP 011700Z 0118/0218 03007KT CAVOK
Forecast period: 1800 UTC 01 June 2020 to 0200 UTC 02 June 2020
Forecast type: FROM: standard forecast or significant change
Winds: from the NNE (30 degrees) at 8 MPH (7 knots; 3.6 m/s)
Visibility: 6 or more miles 10+ km)
Ceiling: unknown
Clouds: missing
Weather: NSW  (no significant weather)
Text: BECMG 0202/0205 33005KT
Forecast period: 0200 to 1800 UTC 02 June 2020
Forecast type: BECOMING: Conditions expected to become as follows by 0500 UTC 02 June 2020
Winds: from the NNW (330 degrees) at 6 MPH (5 knots; 2.6 m/s)
Visibility: 6 or more miles 10+ km)
Ceiling: unknown
Clouds: missing
Weather: NSW  (no significant weather)